Time;durP1;ratioP1;P1;durP2;ratioP2;P2;SDS_P1;SDS_P2;PMS_P1;PMS_P2;Temp;Humidity;BMP_temperature;BMP_pressure;BME280_temperature;BME280_humidity;BME280_pressure;Samples;Min_cycle;Max_cycle;Signal;HPM_P1;HPM_P2
2022/05/19 00:01:04;;;;;;;52.10;23.65;;;18.90;99.90;;;;;;4987536;28;20058;-71
2022/05/19 00:03:33;;;;;;;48.20;22.02;;;18.80;99.90;;;;;;4971174;28;20034;-69
2022/05/19 00:05:58;;;;;;;47.88;23.58;;;18.80;99.90;;;;;;4988173;28;20026;-71
2022/05/19 00:08:25;;;;;;;43.10;22.50;;;18.80;99.90;;;;;;4988178;28;20134;-70
2022/05/19 00:10:51;;;;;;;44.85;22.17;;;18.80;99.90;;;;;;4988282;28;20030;-69
2022/05/19 00:13:17;;;;;;;44.22;20.98;;;18.80;99.90;;;;;;4987890;28;20035;-70
2022/05/19 00:15:43;;;;;;;41.08;20.38;;;18.80;99.90;;;;;;4988068;28;20031;-70
2022/05/19 00:18:09;;;;;;;43.72;21.88;;;18.80;99.90;;;;;;4988125;28;20042;-70
2022/05/19 00:20:35;;;;;;;40.42;19.80;;;18.80;99.90;;;;;;4987810;28;20078;-70
2022/05/19 00:23:01;;;;;;;49.63;20.70;;;18.70;99.90;;;;;;4987875;28;20474;-70
2022/05/19 00:25:27;;;;;;;38.92;20.70;;;18.70;99.90;;;;;;4987974;28;20038;-69
2022/05/19 00:27:52;;;;;;;38.38;19.70;;;18.70;99.90;;;;;;4987714;28;20031;-69
2022/05/19 00:30:18;;;;;;;45.22;20.60;;;18.70;99.90;;;;;;4987573;28;20031;-71
2022/05/19 00:32:43;;;;;;;43.97;20.98;;;18.70;99.90;;;;;;4987508;28;20037;-71
2022/05/19 00:35:10;;;;;;;42.45;21.15;;;18.70;99.90;;;;;;4986366;28;20033;-70
2022/05/19 00:37:35;;;;;;;45.55;22.33;;;18.70;99.90;;;;;;4987841;28;20027;-69
2022/05/19 00:40:01;;;;;;;46.40;20.27;;;18.70;99.90;;;;;;4970205;28;20113;-69
2022/05/19 00:42:44;;;;;;;38.47;20.35;;;18.60;99.90;;;;;;4987500;28;20034;-70
2022/05/19 00:45:20;;;;;;;49.87;22.37;;;18.60;99.90;;;;;;4987490;28;20459;-69
2022/05/19 00:47:58;;;;;;;48.05;22.42;;;18.60;99.90;;;;;;4987130;28;20027;-70
2022/05/19 00:50:44;;;;;;;43.10;22.50;;;18.50;99.90;;;;;;4987544;28;20022;-69
2022/05/19 00:53:22;;;;;;;45.95;21.55;;;18.50;99.90;;;;;;4987125;28;20054;-67
2022/05/19 00:55:50;;;;;;;57.72;25.17;;;18.40;99.90;;;;;;4987295;28;20086;-72
2022/05/19 00:58:31;;;;;;;50.25;25.55;;;18.40;99.90;;;;;;4969780;28;20431;-70
2022/05/19 01:00:57;;;;;;;54.70;25.17;;;18.40;99.90;;;;;;4986958;28;20019;-70
2022/05/19 01:03:25;;;;;;;60.22;25.30;;;18.30;99.90;;;;;;4985794;28;20660;-69
2022/05/19 01:05:55;;;;;;;45.13;21.30;;;18.30;99.90;;;;;;4987279;28;20094;-70
2022/05/19 01:08:26;;;;;;;57.72;23.80;;;18.30;99.90;;;;;;4986992;28;20037;-68
2022/05/19 01:10:53;;;;;;;49.92;23.77;;;18.30;99.90;;;;;;4987200;28;20109;-71
2022/05/19 01:13:20;;;;;;;51.63;21.98;;;18.20;99.90;;;;;;4984855;28;20026;-71
2022/05/19 01:15:51;;;;;;;52.47;26.05;;;18.20;99.90;;;;;;4986557;28;20030;-70
2022/05/19 01:18:17;;;;;;;52.38;25.58;;;18.20;99.90;;;;;;4986906;28;20049;-69
2022/05/19 01:20:45;;;;;;;53.72;23.70;;;18.20;99.90;;;;;;4986807;28;20030;-70
2022/05/19 01:23:59;;;;;;;52.05;24.42;;;18.20;99.90;;;;;;4968973;28;20466;-70
2022/05/19 01:26:28;;;;;;;54.00;25.02;;;18.10;99.90;;;;;;4943743;28;20043;-69
2022/05/19 01:28:56;;;;;;;53.70;26.05;;;18.10;99.90;;;;;;4986537;28;20019;-68
2022/05/19 01:31:45;;;;;;;55.35;26.52;;;18.00;99.90;;;;;;4986101;28;20059;-70
2022/05/19 01:34:11;;;;;;;59.10;27.67;;;18.00;99.90;;;;;;4986581;28;20030;-70
2022/05/19 01:36:36;;;;;;;53.67;27.90;;;18.00;99.90;;;;;;4986703;28;20023;-70
2022/05/19 01:39:08;;;;;;;59.83;28.15;;;17.90;99.90;;;;;;4986308;28;20045;-70
2022/05/19 01:42:12;;;;;;;61.40;28.58;;;17.90;99.90;;;;;;4986608;28;20026;-69
2022/05/19 01:44:56;;;;;;;52.58;28.00;;;17.90;99.90;;;;;;4986081;28;20055;-71
2022/05/19 01:47:37;;;;;;;62.30;29.45;;;17.80;99.90;;;;;;4986336;28;20026;-71
2022/05/19 01:50:32;;;;;;;66.72;29.58;;;17.80;99.90;;;;;;4986547;28;20042;-71
2022/05/19 01:53:10;;;;;;;67.15;30.20;;;17.80;99.90;;;;;;4986344;28;20063;-70
2022/05/19 01:56:07;;;;;;;54.42;28.92;;;17.70;99.90;;;;;;4986338;28;20027;-70
2022/05/19 01:58:48;;;;;;;97.97;29.70;;;17.70;99.90;;;;;;4954400;28;20055;-72
2022/05/19 02:01:17;;;;;;;55.95;29.75;;;17.70;99.90;;;;;;4986133;28;20495;-70
2022/05/19 02:04:08;;;;;;;67.72;31.42;;;17.70;99.90;;;;;;4986065;28;20018;-71
2022/05/19 02:06:36;;;;;;;61.95;30.33;;;17.70;99.90;;;;;;4986009;28;20031;-69
2022/05/19 02:09:12;;;;;;;69.70;31.08;;;17.60;99.90;;;;;;4986401;28;20031;-71
2022/05/19 02:11:49;;;;;;;68.03;30.83;;;17.60;99.90;;;;;;4986194;28;20090;-70
2022/05/19 02:14:18;;;;;;;71.53;33.63;;;17.60;99.90;;;;;;4985915;28;20109;-71
2022/05/19 02:16:45;;;;;;;74.05;32.45;;;17.60;99.90;;;;;;4986026;28;20026;-71
2022/05/19 02:19:15;;;;;;;61.45;31.45;;;17.50;99.90;;;;;;4985832;28;20042;-71
2022/05/19 02:21:40;;;;;;;74.20;34.58;;;17.50;99.90;;;;;;4985839;28;20030;-71
2022/05/19 02:24:09;;;;;;;77.47;37.55;;;17.50;99.90;;;;;;4989777;28;20042;-70
2022/05/19 02:26:38;;;;;;;69.88;34.72;;;17.50;99.90;;;;;;4992373;28;20080;-70
2022/05/19 02:29:07;;;;;;;72.25;36.90;;;17.50;99.90;;;;;;4992497;28;20022;-70
2022/05/19 02:31:33;;;;;;;71.72;35.67;;;17.40;99.90;;;;;;4992151;28;20047;-70
2022/05/19 02:33:59;;;;;;;72.88;37.45;;;17.40;99.90;;;;;;4992157;28;20031;-71
2022/05/19 02:36:24;;;;;;;79.85;37.50;;;17.30;99.90;;;;;;4992371;28;20030;-72
2022/05/19 02:38:50;;;;;;;72.55;35.55;;;17.40;99.90;;;;;;4992243;28;20046;-69
2022/05/19 02:41:16;;;;;;;67.88;35.50;;;17.30;99.90;;;;;;4992138;28;20031;-70
2022/05/19 02:43:41;;;;;;;85.38;38.97;;;17.30;99.90;;;;;;4992330;28;20019;-71
2022/05/19 02:46:07;;;;;;;71.95;36.42;;;17.30;99.90;;;;;;4992214;28;20023;-72
2022/05/19 02:48:33;;;;;;;73.97;35.85;;;17.30;99.90;;;;;;4992082;28;20027;-71
2022/05/19 02:51:02;;;;;;;83.57;36.92;;;17.30;99.90;;;;;;4992554;28;20031;-71
2022/05/19 02:53:28;;;;;;;79.97;37.40;;;17.30;99.90;;;;;;4992069;28;20050;-73
2022/05/19 02:55:54;;;;;;;89.18;38.03;;;17.30;99.90;;;;;;4992077;28;20027;-72
2022/05/19 02:58:19;;;;;;;79.50;36.58;;;17.30;99.90;;;;;;4974749;28;20136;-70
2022/05/19 03:00:48;;;;;;;83.47;37.50;;;17.30;99.90;;;;;;4991843;28;20042;-70
2022/05/19 03:03:14;;;;;;;77.20;38.22;;;17.30;99.90;;;;;;4991915;28;20030;-69
2022/05/19 03:05:41;;;;;;;78.80;36.47;;;17.30;99.90;;;;;;4990837;28;20377;-70
2022/05/19 03:08:08;;;;;;;85.18;36.35;;;17.20;99.90;;;;;;4991815;28;20026;-71
2022/05/19 03:10:36;;;;;;;70.95;35.30;;;17.10;99.90;;;;;;4992171;28;20030;-71
2022/05/19 03:13:02;;;;;;;69.90;35.40;;;17.20;99.90;;;;;;4992263;28;20034;-73
2022/05/19 03:15:29;;;;;;;70.25;34.28;;;17.30;99.90;;;;;;4991709;28;20058;-71
2022/05/19 03:17:55;;;;;;;71.18;33.42;;;17.20;99.90;;;;;;4974533;28;20415;-70
2022/05/19 03:20:21;;;;;;;66.07;31.98;;;17.20;99.90;;;;;;4991903;28;20856;-71
2022/05/19 03:22:46;;;;;;;66.75;31.98;;;17.20;99.90;;;;;;4991653;28;20422;-71
2022/05/19 03:25:14;;;;;;;73.35;33.83;;;17.20;99.90;;;;;;4991987;28;20118;-70
2022/05/19 03:27:40;;;;;;;65.60;32.10;;;17.20;99.90;;;;;;4991942;28;20045;-71
2022/05/19 03:30:10;;;;;;;69.82;33.47;;;17.20;99.90;;;;;;4991430;28;20365;-69
2022/05/19 03:32:36;;;;;;;64.53;29.10;;;17.30;99.90;;;;;;4991986;28;20129;-70
2022/05/19 03:35:02;;;;;;;56.15;26.08;;;17.30;99.90;;;;;;4989756;28;20035;-70
2022/05/19 03:37:28;;;;;;;49.97;25.08;;;17.30;99.90;;;;;;4988660;28;20097;-70
2022/05/19 03:39:54;;;;;;;55.30;25.23;;;17.30;99.90;;;;;;4988801;28;20031;-72
2022/05/19 03:42:20;;;;;;;49.50;25.52;;;17.40;99.90;;;;;;4988524;28;20023;-71
2022/05/19 03:44:45;;;;;;;50.92;24.85;;;17.40;99.90;;;;;;4988420;28;20031;-71
2022/05/19 03:47:11;;;;;;;46.83;23.98;;;17.40;99.90;;;;;;4988731;28;20233;-70
2022/05/19 03:49:37;;;;;;;46.63;24.30;;;17.50;99.90;;;;;;4988360;28;20030;-70
2022/05/19 03:52:04;;;;;;;44.22;23.25;;;17.50;99.90;;;;;;4988561;28;20034;-70
2022/05/19 03:54:30;;;;;;;47.22;23.25;;;17.50;99.90;;;;;;4988622;28;20027;-71
2022/05/19 03:56:55;;;;;;;41.35;21.90;;;17.50;99.90;;;;;;4970818;28;20061;-70
2022/05/19 03:59:21;;;;;;;42.25;22.13;;;17.60;99.90;;;;;;4995282;28;20540;-70
2022/05/19 04:01:47;;;;;;;43.20;21.52;;;17.60;99.90;;;;;;4996983;28;20058;-70
2022/05/19 04:04:12;;;;;;;46.60;21.45;;;17.60;99.90;;;;;;4987796;28;20038;-71
2022/05/19 04:06:38;;;;;;;43.25;21.83;;;17.70;99.90;;;;;;4988266;28;20035;-71
2022/05/19 04:09:05;;;;;;;42.22;19.27;;;17.60;99.90;;;;;;4988143;28;20530;-72
2022/05/19 04:11:32;;;;;;;32.60;17.67;;;17.50;99.90;;;;;;4988115;28;20054;-70
2022/05/19 04:13:58;;;;;;;24.75;13.82;;;17.70;99.90;;;;;;4988316;28;20372;-70
2022/05/19 04:16:24;;;;;;;37.28;18.30;;;17.70;99.90;;;;;;4987857;28;20019;-70
2022/05/19 04:18:49;;;;;;;31.20;14.63;;;17.70;99.90;;;;;;4987846;28;20038;-69
2022/05/19 04:21:15;;;;;;;26.70;15.32;;;17.70;99.90;;;;;;4995531;28;20034;-70
2022/05/19 04:23:40;;;;;;;26.73;11.70;;;17.90;99.90;;;;;;4994638;28;20035;-71
2022/05/19 04:26:06;;;;;;;25.17;13.27;;;17.90;99.90;;;;;;5007218;28;20026;-70
2022/05/19 04:28:32;;;;;;;24.60;12.68;;;18.00;99.90;;;;;;5007353;28;20101;-71
2022/05/19 04:30:58;;;;;;;22.10;11.20;;;18.00;99.90;;;;;;4989609;28;20053;-70
2022/05/19 04:33:23;;;;;;;20.63;11.02;;;18.00;99.90;;;;;;5006942;28;20026;-71
2022/05/19 04:35:53;;;;;;;19.85;9.82;;;18.10;99.90;;;;;;5007257;28;20037;-70
2022/05/19 04:38:20;;;;;;;24.88;9.60;;;18.10;99.90;;;;;;5006836;28;20042;-70
2022/05/19 04:40:48;;;;;;;18.77;9.65;;;18.20;99.90;;;;;;5004892;28;20027;-71
2022/05/19 04:43:23;;;;;;;14.90;9.48;;;18.30;99.90;;;;;;5001585;28;20030;-70
2022/05/19 04:45:50;;;;;;;19.95;9.48;;;18.30;99.90;;;;;;4995945;28;20025;-70
2022/05/19 04:48:16;;;;;;;17.20;10.13;;;18.40;99.90;;;;;;4992540;28;20039;-70
2022/05/19 04:50:42;;;;;;;24.30;11.07;;;18.40;99.90;;;;;;4989487;28;20038;-69
2022/05/19 04:53:08;;;;;;;17.75;8.73;;;18.40;99.90;;;;;;5018177;28;20029;-70
2022/05/19 04:55:37;;;;;;;18.17;8.73;;;18.50;99.90;;;;;;5009181;28;20062;-71
2022/05/19 04:58:07;;;;;;;20.25;9.38;;;18.50;99.90;;;;;;4998966;28;20085;-70
2022/05/19 05:00:35;;;;;;;16.52;9.18;;;18.50;99.90;;;;;;5003900;28;20042;-70
2022/05/19 05:03:03;;;;;;;20.77;9.32;;;18.50;99.90;;;;;;5006751;28;20091;-70
2022/05/19 05:05:29;;;;;;;15.38;8.30;;;18.50;99.90;;;;;;4988479;28;20026;-70
2022/05/19 05:07:55;;;;;;;17.98;9.43;;;18.50;99.90;;;;;;4989071;28;21135;-70
2022/05/19 05:10:21;;;;;;;15.65;8.15;;;18.50;99.90;;;;;;5006342;28;20061;-69
2022/05/19 05:12:46;;;;;;;12.05;6.97;;;18.50;99.90;;;;;;5005721;28;20030;-70
2022/05/19 05:15:12;;;;;;;11.73;7.00;;;18.50;99.90;;;;;;5005405;28;20041;-71
2022/05/19 05:17:38;;;;;;;11.65;6.20;;;18.50;99.90;;;;;;5006401;28;20035;-72
2022/05/19 05:20:05;;;;;;;11.27;6.63;;;18.40;99.90;;;;;;5006255;28;20027;-69
2022/05/19 05:22:34;;;;;;;17.02;6.18;;;18.60;99.90;;;;;;5006667;28;20061;-70
2022/05/19 05:25:07;;;;;;;11.38;6.32;;;18.50;99.90;;;;;;5003505;28;20022;-70
2022/05/19 05:27:33;;;;;;;15.10;7.00;;;18.50;99.90;;;;;;5004229;28;20023;-70
2022/05/19 05:29:59;;;;;;;8.98;5.63;;;18.50;99.90;;;;;;5005223;28;20033;-70
2022/05/19 05:32:24;;;;;;;12.25;6.45;;;18.50;99.90;;;;;;4997534;28;20418;-70
2022/05/19 05:34:50;;;;;;;11.02;5.50;;;18.60;99.90;;;;;;4992416;28;20030;-71
2022/05/19 05:37:15;;;;;;;11.90;6.35;;;18.60;99.90;;;;;;5004838;28;20203;-70
2022/05/19 05:39:41;;;;;;;13.05;6.05;;;18.60;99.90;;;;;;4999370;28;20040;-70
2022/05/19 05:42:07;;;;;;;9.45;5.35;;;18.50;99.90;;;;;;5001522;28;20019;-71
2022/05/19 05:44:33;;;;;;;12.55;7.35;;;18.60;99.90;;;;;;4992499;28;20030;-69
2022/05/19 05:46:58;;;;;;;9.77;6.13;;;18.60;99.90;;;;;;5005245;28;20034;-69
2022/05/19 05:49:24;;;;;;;10.65;5.63;;;18.60;99.90;;;;;;4997168;28;20078;-70
2022/05/19 05:51:50;;;;;;;9.85;6.15;;;18.60;99.90;;;;;;4985092;28;20053;-69
2022/05/19 05:54:15;;;;;;;11.18;6.78;;;18.70;99.90;;;;;;4984700;28;20038;-70
2022/05/19 05:56:41;;;;;;;12.57;6.55;;;18.70;99.90;;;;;;4984722;28;20027;-70
2022/05/19 05:59:11;;;;;;;12.98;5.35;;;18.70;99.90;;;;;;4988870;28;20034;-72
2022/05/19 06:01:37;;;;;;;8.25;4.95;;;18.80;99.90;;;;;;4994466;28;20041;-71
2022/05/19 06:04:03;;;;;;;9.45;5.22;;;18.70;99.90;;;;;;4998066;28;20077;-71
2022/05/19 06:06:29;;;;;;;10.80;6.13;;;18.90;99.90;;;;;;4998983;28;20042;-71
2022/05/19 06:08:55;;;;;;;9.43;5.88;;;18.90;99.90;;;;;;4993426;28;20101;-69
2022/05/19 06:11:21;;;;;;;10.40;6.05;;;19.00;99.90;;;;;;4984426;28;20027;-68
2022/05/19 06:13:50;;;;;;;9.77;6.35;;;19.10;99.90;;;;;;4986002;28;20031;-71
2022/05/19 06:16:26;;;;;;;20.45;6.45;;;19.20;99.90;;;;;;4996736;28;20137;-70
2022/05/19 06:18:51;;;;;;;11.07;7.15;;;19.20;99.90;;;;;;4996235;28;20053;-70
2022/05/19 06:21:17;;;;;;;16.67;7.03;;;19.20;99.90;;;;;;4996694;28;20035;-70
2022/05/19 06:23:43;;;;;;;15.18;7.72;;;19.30;99.90;;;;;;4992881;28;20038;-70
2022/05/19 06:26:09;;;;;;;11.10;6.78;;;19.40;99.90;;;;;;4998139;28;20062;-70
2022/05/19 06:28:35;;;;;;;12.10;6.07;;;19.50;99.90;;;;;;4978107;28;20026;-71
2022/05/19 08:21:11;;;;;;;3.72;2.03;;;24.60;99.90;;;;;;4742284;23;20073;-73
2022/05/19 08:23:40;;;;;;;8.05;2.63;;;24.70;99.90;;;;;;4999573;28;20117;-71
2022/05/19 08:26:08;;;;;;;4.32;2.35;;;24.70;99.90;;;;;;5006410;28;20394;-72
2022/05/19 08:28:35;;;;;;;3.85;2.42;;;24.70;99.90;;;;;;4998732;28;20498;-69
2022/05/19 08:31:05;;;;;;;5.45;2.47;;;24.90;99.90;;;;;;4986903;28;20098;-70
2022/05/19 08:33:32;;;;;;;3.90;2.20;;;25.00;99.90;;;;;;4985740;28;20031;-69
2022/05/19 08:35:58;;;;;;;4.75;2.65;;;25.20;99.90;;;;;;4994647;28;20038;-70
2022/05/19 08:38:23;;;;;;;4.28;2.50;;;25.30;99.90;;;;;;5006077;28;20054;-71
2022/05/19 08:40:53;;;;;;;7.15;3.35;;;25.40;99.90;;;;;;4998301;28;20553;-70
2022/05/19 08:43:24;;;;;;;5.40;2.78;;;25.50;99.90;;;;;;4993366;28;20034;-71
2022/05/19 08:45:56;;;;;;;6.93;2.40;;;25.40;99.90;;;;;;4997994;28;20414;-74
2022/05/19 08:48:26;;;;;;;4.95;2.83;;;25.40;99.90;;;;;;4996239;28;20130;-71
2022/05/19 08:50:56;;;;;;;5.47;2.47;;;25.40;99.90;;;;;;4986181;28;20105;-73
2022/05/19 08:53:29;;;;;;;16.75;2.85;;;25.40;99.90;;;;;;4994370;28;20026;-73
2022/05/19 08:56:00;;;;;;;6.17;2.87;;;25.50;99.90;;;;;;5000851;28;20061;-70
2022/05/19 08:58:37;;;;;;;3.75;2.33;;;25.60;99.90;;;;;;4989326;28;20051;-70
2022/05/19 09:01:28;;;;;;;4.82;2.90;;;25.70;99.90;;;;;;4989125;28;20763;-71
2022/05/19 09:04:36;;;;;;;9.48;2.60;;;25.70;99.90;;;;;;5006644;28;20042;-71
2022/05/19 09:10:52;;;;;;;4.50;2.33;;;25.70;99.90;;;;;;5006253;28;20054;-72
2022/05/19 09:13:37;;;;;;;4.82;2.92;;;25.80;99.90;;;;;;4974771;28;20043;-71
2022/05/19 09:16:16;;;;;;;7.70;2.90;;;25.90;99.90;;;;;;5009875;28;20042;-71
2022/05/19 09:19:06;;;;;;;5.00;2.90;;;25.90;99.90;;;;;;4981498;28;20050;-72
2022/05/19 09:21:35;;;;;;;4.80;2.65;;;25.90;99.90;;;;;;5007275;28;20055;-71
2022/05/19 09:24:00;;;;;;;7.93;3.75;;;25.90;99.90;;;;;;5010698;28;20030;-73
2022/05/19 09:26:46;;;;;;;4.38;2.40;;;26.00;99.90;;;;;;5010094;28;20029;-71
2022/05/19 09:29:16;;;;;;;3.92;2.25;;;26.10;99.90;;;;;;5005623;28;20041;-71
2022/05/19 09:31:52;;;;;;;5.30;2.85;;;26.00;99.90;;;;;;5005657;28;20022;-71
2022/05/19 09:34:22;;;;;;;3.50;2.72;;;26.00;99.90;;;;;;5005559;28;20090;-70
2022/05/19 09:37:06;;;;;;;3.00;2.55;;;26.00;99.90;;;;;;5004936;28;20069;-70
2022/05/19 09:39:35;;;;;;;;;;;26.00;99.90;;;;;;5026324;28;20033;-70
2022/05/19 09:42:22;;;;;;;4.00;2.65;;;25.90;99.90;;;;;;5025593;28;20319;-71
2022/05/19 09:44:56;;;;;;;7.22;2.35;;;25.90;99.90;;;;;;4972134;28;20102;-70
2022/05/19 09:47:36;;;;;;;5.13;2.75;;;26.00;99.90;;;;;;4979502;28;20074;-70
2022/05/19 09:50:06;;;;;;;3.50;2.50;;;25.90;99.90;;;;;;4982786;28;22717;-69
2022/05/19 09:52:32;;;;;;;7.60;2.97;;;25.90;99.90;;;;;;4983257;28;20058;-70
2022/05/19 09:55:05;;;;;;;4.10;2.72;;;25.90;99.90;;;;;;4981404;28;20065;-70
2022/05/19 09:57:44;;;;;;;5.75;3.30;;;25.90;99.90;;;;;;4962411;29;20058;-71
2022/05/19 10:00:35;;;;;;;8.85;2.42;;;26.00;99.90;;;;;;4982298;28;20043;-71
2022/05/19 10:03:03;;;;;;;6.97;2.42;;;26.10;99.90;;;;;;4970575;28;20027;-71
2022/05/19 10:05:37;;;;;;;6.90;2.85;;;26.20;99.90;;;;;;4972446;28;20046;-70
2022/05/19 10:08:20;;;;;;;8.70;3.05;;;26.30;99.90;;;;;;4971088;28;20031;-70
2022/05/19 10:11:04;;;;;;;4.07;2.50;;;26.50;99.90;;;;;;4967000;28;20038;-69
2022/05/19 10:13:55;;;;;;;5.53;3.25;;;26.70;99.90;;;;;;4982388;28;20049;-70
2022/05/19 10:16:57;;;;;;;7.78;2.72;;;26.80;99.90;;;;;;4984147;28;20047;-70
2022/05/19 10:19:41;;;;;;;6.30;3.03;;;26.80;99.90;;;;;;4983603;28;20042;-69
2022/05/19 10:22:14;;;;;;;4.85;3.10;;;26.80;99.90;;;;;;4982814;28;20051;-69
2022/05/19 10:24:58;;;;;;;5.53;2.78;;;26.90;99.90;;;;;;4967291;28;20051;-72
2022/05/19 10:33:56;;;;;;;3.22;2.10;;;27.20;99.90;;;;;;4984120;28;20079;-72
2022/05/19 10:36:47;;;;;;;;;;;27.20;99.90;;;;;;4983777;28;20042;-71
2022/05/19 10:39:50;;;;;;;4.75;3.05;;;27.20;99.90;;;;;;4983773;28;19953;-71
2022/05/19 10:42:37;;;;;;;5.15;2.75;;;27.20;99.90;;;;;;4982269;28;20031;-70
2022/05/19 10:45:24;;;;;;;3.85;2.92;;;27.20;99.90;;;;;;4975313;28;20039;-74
2022/05/19 10:48:07;;;;;;;4.80;2.53;;;27.30;99.90;;;;;;4968882;28;20056;-70
2022/05/19 10:50:40;;;;;;;5.88;2.33;;;27.30;99.90;;;;;;4968122;28;20039;-74
2022/05/19 10:53:22;;;;;;;3.10;2.50;;;27.40;99.90;;;;;;4968994;28;20122;-71
2022/05/19 10:55:47;;;;;;;14.40;3.10;;;27.40;99.90;;;;;;4986969;28;20037;-69
2022/05/19 10:58:31;;;;;;;5.28;2.70;;;27.40;99.90;;;;;;4987167;28;20066;-70
2022/05/19 11:01:05;;;;;;;;;;;27.50;99.90;;;;;;5008222;28;20500;-70
2022/05/19 11:03:53;;;;;;;5.82;2.63;;;27.70;99.90;;;;;;5028220;28;19911;-72
2022/05/19 11:06:27;;;;;;;5.07;2.90;;;27.90;99.90;;;;;;5021425;28;20387;-69
2022/05/19 11:09:31;;;;;;;3.35;2.25;;;28.10;99.90;;;;;;5008963;28;20053;-70
2022/05/19 11:12:06;;;;;;;4.85;2.70;;;28.10;99.90;;;;;;5006970;28;20046;-71
2022/05/19 11:15:02;;;;;;;3.65;2.33;;;28.20;99.90;;;;;;5008933;28;20027;-71
2022/05/19 11:17:53;;;;;;;3.78;2.10;;;28.30;99.90;;;;;;5008610;28;20080;-70
2022/05/19 11:20:27;;;;;;;5.05;2.60;;;28.40;99.90;;;;;;5008408;28;20076;-70
2022/05/19 11:22:55;;;;;;;;;;;28.40;99.90;;;;;;5008863;28;20030;-70
2022/05/19 11:28:33;;;;;;;3.22;1.98;;;28.50;99.90;;;;;;5008941;28;20087;-70
2022/05/19 11:31:05;;;;;;;5.03;2.35;;;28.50;99.90;;;;;;5008206;28;20090;-70
2022/05/19 11:33:37;;;;;;;3.30;2.30;;;28.50;99.90;;;;;;5008593;28;20546;-71
2022/05/19 11:36:18;;;;;;;4.22;2.22;;;28.50;99.90;;;;;;5008256;28;20035;-71
2022/05/19 11:39:05;;;;;;;4.90;2.65;;;28.60;99.90;;;;;;5008081;28;20139;-71
2022/05/19 11:41:36;;;;;;;5.05;2.28;;;28.60;99.90;;;;;;5015952;28;20066;-71
2022/05/19 11:44:29;;;;;;;5.35;2.90;;;28.60;99.90;;;;;;5027666;28;20026;-71
2022/05/19 11:55:12;;;;;;;11.23;3.42;;;28.60;99.90;;;;;;5027331;28;20524;-70
2022/05/19 11:55:45;;;;;;;5.10;2.45;;;28.50;99.90;;;;;;5022645;28;20040;-72
2022/05/19 11:58:22;;;;;;;10.43;2.75;;;28.60;99.90;;;;;;5006283;28;20062;-71
2022/05/19 12:00:55;;;;;;;7.10;3.40;;;28.70;99.90;;;;;;5006980;28;20037;-71
2022/05/19 12:03:23;;;;;;;6.32;2.97;;;28.70;99.90;;;;;;5007451;28;20031;-72
2022/05/19 12:06:12;;;;;;;3.97;2.17;;;28.90;99.90;;;;;;5007596;28;20027;-71
2022/05/19 12:09:16;;;;;;;3.63;2.40;;;29.10;99.90;;;;;;4979910;28;20076;-72
2022/05/19 12:11:45;;;;;;;4.35;2.53;;;29.30;99.90;;;;;;5007769;28;20025;-71
2022/05/19 12:14:11;;;;;;;8.90;2.35;;;29.40;99.90;;;;;;5019233;28;20030;-72
2022/05/19 12:16:52;;;;;;;4.38;2.67;;;29.50;99.90;;;;;;5017552;28;20052;-72
2022/05/19 12:19:47;;;;;;;4.95;2.13;;;29.70;99.90;;;;;;5024782;28;20050;-71
2022/05/19 12:22:33;;;;;;;7.75;2.60;;;29.70;99.90;;;;;;5026580;28;20042;-72
2022/05/19 12:25:07;;;;;;;4.03;2.45;;;29.70;99.90;;;;;;5027382;28;20077;-71
2022/05/19 12:27:36;;;;;;;4.43;2.53;;;29.70;99.90;;;;;;5026516;28;20030;-71
2022/05/19 12:33:13;;;;;;;12.82;5.60;;;29.40;99.90;;;;;;5020017;28;20057;-71
2022/05/19 12:35:44;;;;;;;3.83;2.60;;;29.30;99.90;;;;;;5011565;28;20065;-72
2022/05/19 12:38:31;;;;;;;7.22;3.30;;;29.20;99.90;;;;;;5018923;28;20084;-71
2022/05/19 12:41:08;;;;;;;9.95;3.38;;;29.10;99.90;;;;;;5013005;28;20068;-70
2022/05/19 12:43:44;;;;;;;4.22;2.22;;;29.00;99.90;;;;;;5014538;28;20069;-71
2022/05/19 12:46:38;;;;;;;4.55;3.05;;;28.90;99.90;;;;;;5009507;28;20041;-73
2022/05/19 12:49:16;;;;;;;5.05;2.65;;;28.80;99.90;;;;;;5023473;28;20042;-72
2022/05/19 12:51:54;;;;;;;3.38;2.25;;;28.80;99.90;;;;;;5020231;28;20101;-71
2022/05/19 12:54:22;;;;;;;7.18;2.40;;;28.70;99.90;;;;;;5007321;28;20033;-71
2022/05/19 12:57:01;;;;;;;4.22;2.38;;;28.70;99.90;;;;;;5023737;28;20030;-71
2022/05/19 12:59:37;;;;;;;7.80;2.53;;;28.60;99.90;;;;;;5025454;28;20427;-71
2022/05/19 13:02:11;;;;;;;8.77;2.80;;;28.60;99.90;;;;;;5008371;28;20049;-71
2022/05/19 13:04:44;;;;;;;3.25;2.38;;;28.60;99.90;;;;;;5017972;28;20041;-72
2022/05/19 13:07:22;;;;;;;7.68;2.83;;;28.50;99.90;;;;;;5006218;28;20041;-72
2022/05/19 13:10:34;;;;;;;6.68;2.05;;;28.70;99.90;;;;;;5005558;28;20038;-70
2022/05/19 13:13:25;;;;;;;5.00;2.63;;;28.90;99.90;;;;;;5006678;28;20115;-71
2022/05/19 13:15:59;;;;;;;7.53;2.83;;;29.10;99.90;;;;;;5006054;28;20038;-71
2022/05/19 13:18:40;;;;;;;4.25;2.63;;;29.20;99.90;;;;;;5008380;28;20054;-71
2022/05/19 13:21:21;;;;;;;4.47;2.40;;;29.30;99.90;;;;;;5012127;28;20053;-72
2022/05/19 13:23:47;;;;;;;3.03;2.10;;;29.50;99.90;;;;;;5023864;28;20030;-71
2022/05/19 13:26:37;;;;;;;5.88;2.78;;;29.70;99.90;;;;;;5025755;28;20458;-70
2022/05/19 13:32:00;;;;;;;5.05;2.45;;;30.00;99.90;;;;;;5020986;28;20057;-70
2022/05/19 13:34:47;;;;;;;4.75;2.95;;;30.10;99.90;;;;;;5004607;28;20852;-70
2022/05/19 13:37:27;;;;;;;7.22;2.97;;;30.20;99.90;;;;;;5015449;28;20049;-70
2022/05/19 13:40:29;;;;;;;5.40;2.38;;;30.20;99.90;;;;;;5014379;28;20042;-70
2022/05/19 13:43:00;;;;;;;4.20;2.40;;;30.00;99.90;;;;;;5005891;28;20026;-70
2022/05/19 13:45:37;;;;;;;6.60;2.33;;;29.80;99.90;;;;;;5005812;28;20038;-70
2022/05/19 13:48:37;;;;;;;4.07;2.60;;;29.70;99.90;;;;;;5022307;28;20026;-71
2022/05/19 13:51:11;;;;;;;6.38;2.70;;;29.60;99.90;;;;;;5025136;28;20030;-71
2022/05/19 13:53:40;;;;;;;12.45;3.00;;;29.40;99.90;;;;;;5025539;28;20033;-71
2022/05/19 13:56:05;;;;;;;3.15;1.95;;;29.20;99.90;;;;;;5021374;28;20030;-70
2022/05/19 13:58:33;;;;;;;4.25;2.13;;;29.10;99.90;;;;;;5011315;28;20092;-70
2022/05/19 14:01:01;;;;;;;3.92;2.65;;;28.90;99.90;;;;;;5016689;28;20117;-69
2022/05/19 14:03:27;;;;;;;6.95;2.63;;;28.80;99.90;;;;;;5013915;28;20065;-70
2022/05/19 14:05:56;;;;;;;4.40;2.17;;;28.70;99.90;;;;;;5008810;28;20038;-70
2022/05/19 14:08:32;;;;;;;5.28;2.38;;;28.60;99.90;;;;;;5024569;28;20040;-70
2022/05/19 14:10:59;;;;;;;4.40;2.50;;;28.50;99.90;;;;;;5022839;28;20033;-71
2022/05/19 14:13:28;;;;;;;4.22;2.60;;;28.40;99.90;;;;;;5024476;28;20037;-69
2022/05/19 14:16:04;;;;;;;4.28;2.70;;;28.30;99.90;;;;;;5019869;28;20052;-69
2022/05/19 14:18:40;;;;;;;3.78;2.22;;;28.20;99.90;;;;;;5016466;28;20049;-70
2022/05/19 14:21:25;;;;;;;6.88;2.92;;;28.10;99.90;;;;;;5001489;28;20046;-70
2022/05/19 14:23:58;;;;;;;5.57;3.08;;;27.90;99.90;;;;;;5005314;28;20052;-69
2022/05/19 14:26:39;;;;;;;4.55;2.55;;;27.70;99.90;;;;;;5016036;28;20033;-70
2022/05/19 14:29:06;;;;;;;6.90;2.53;;;27.50;99.90;;;;;;5023131;28;20159;-70
2022/05/19 14:31:54;;;;;;;3.42;2.38;;;27.40;99.90;;;;;;5016860;28;20036;-71
2022/05/19 14:34:20;;;;;;;4.38;2.25;;;27.20;99.90;;;;;;5014586;28;20022;-70
2022/05/19 14:36:57;;;;;;;16.13;3.38;;;27.00;99.90;;;;;;5020717;28;20557;-69
2022/05/19 14:39:36;;;;;;;7.28;2.35;;;26.90;99.90;;;;;;5023976;28;20045;-70
2022/05/19 14:44:54;;;;;;;10.95;2.78;;;26.70;99.90;;;;;;5012740;28;20088;-69
2022/05/19 14:47:32;;;;;;;3.85;2.33;;;26.50;99.90;;;;;;5014508;28;20030;-70
2022/05/19 14:50:04;;;;;;;10.68;2.22;;;26.30;99.90;;;;;;5013496;28;20026;-69
2022/05/19 14:52:45;;;;;;;10.82;2.65;;;26.20;99.90;;;;;;5000649;28;20383;-72
2022/05/19 14:55:26;;;;;;;5.00;2.50;;;25.90;99.90;;;;;;5014145;28;20022;-72
2022/05/19 14:57:56;;;;;;;5.32;2.60;;;25.70;99.90;;;;;;5006441;28;20685;-77
2022/05/19 15:00:24;;;;;;;9.63;3.28;;;25.50;99.90;;;;;;5019772;28;20029;-71
2022/05/19 15:02:50;;;;;;;4.45;2.80;;;25.20;99.90;;;;;;5021793;28;20038;-73
2022/05/19 15:05:16;;;;;;;6.72;2.90;;;24.90;99.90;;;;;;5017531;28;20034;-69
2022/05/19 15:07:42;;;;;;;7.50;3.22;;;24.70;99.90;;;;;;5016567;28;20161;-70
2022/05/19 15:10:10;;;;;;;12.73;4.55;;;24.30;99.90;;;;;;5022137;28;20029;-70
2022/05/19 15:12:36;;;;;;;12.70;5.32;;;23.80;99.90;;;;;;5017291;28;20068;-70
2022/05/19 15:15:02;;;;;;;12.85;6.13;;;23.40;99.90;;;;;;5010336;28;20410;-74
2022/05/19 15:17:28;;;;;;;11.90;7.53;;;23.10;99.90;;;;;;5011976;28;20054;-71
2022/05/19 15:19:53;;;;;;;15.20;6.75;;;22.80;99.90;;;;;;4999659;28;20450;-72
2022/05/19 15:22:20;;;;;;;11.95;6.78;;;22.60;99.90;;;;;;5014070;28;20046;-69
2022/05/19 15:24:53;;;;;;;15.77;7.90;;;22.20;99.90;;;;;;5018583;28;20057;-72